Time;durP1;ratioP1;P1;durP2;ratioP2;P2;SDS_P1;SDS_P2;PMS_P1;PMS_P2;Temp;Humidity;BMP_temperature;BMP_pressure;BME280_temperature;BME280_humidity;BME280_pressure;Samples;Min_cycle;Max_cycle;Signal;HPM_P1;HPM_P2
2024/03/06 00:02:07;;;;;;;18.13;9.15;;;6.40;99.90;;;;;;5105246;28;20028;-70
2024/03/06 00:04:33;;;;;;;20.80;10.15;;;6.40;99.90;;;;;;5085601;28;20566;-71
2024/03/06 00:06:59;;;;;;;22.83;10.00;;;6.40;99.90;;;;;;5097148;28;20520;-71
2024/03/06 00:09:27;;;;;;;20.48;10.77;;;6.40;99.90;;;;;;5087158;28;20019;-71
2024/03/06 00:11:53;;;;;;;21.30;9.93;;;6.50;99.90;;;;;;5087467;28;20035;-70
2024/03/06 00:14:19;;;;;;;24.70;10.40;;;6.50;99.90;;;;;;5083112;28;20126;-70
2024/03/06 00:16:45;;;;;;;20.63;9.65;;;6.60;99.90;;;;;;5087951;28;20036;-71
2024/03/06 00:19:10;;;;;;;23.08;10.55;;;6.60;99.90;;;;;;5087429;28;20073;-71
2024/03/06 00:21:36;;;;;;;20.80;9.73;;;6.60;99.90;;;;;;5104848;28;20035;-72
2024/03/06 00:24:03;;;;;;;26.35;10.90;;;6.70;99.90;;;;;;5087995;28;20031;-70
2024/03/06 00:26:29;;;;;;;18.58;9.35;;;6.70;99.90;;;;;;5083662;28;20038;-71
2024/03/06 00:28:54;;;;;;;23.13;10.45;;;6.70;99.90;;;;;;5086241;28;20035;-72
2024/03/06 00:31:20;;;;;;;20.60;10.35;;;6.80;99.90;;;;;;5101396;28;20051;-72
2024/03/06 00:33:45;;;;;;;24.48;10.35;;;6.80;99.90;;;;;;5100214;28;20038;-72
2024/03/06 00:36:11;;;;;;;23.45;11.15;;;6.90;99.90;;;;;;5087350;28;20031;-72
2024/03/06 00:38:36;;;;;;;25.88;10.55;;;7.00;99.90;;;;;;5099363;28;20043;-72
2024/03/06 00:41:02;;;;;;;22.50;10.20;;;7.00;99.90;;;;;;5087145;28;20357;-70
2024/03/06 00:43:28;;;;;;;19.10;10.18;;;7.00;99.90;;;;;;5087374;28;20059;-72
2024/03/06 00:45:53;;;;;;;20.02;9.82;;;6.90;99.90;;;;;;5087637;28;20058;-72
2024/03/06 00:48:21;;;;;;;21.77;11.20;;;7.00;99.90;;;;;;5105461;28;20781;-71
2024/03/06 00:50:47;;;;;;;25.92;9.88;;;7.00;99.90;;;;;;5085316;28;20169;-71
2024/03/06 00:53:12;;;;;;;22.98;10.68;;;7.00;99.90;;;;;;5081808;28;20440;-73
2024/03/06 00:55:38;;;;;;;20.45;9.07;;;7.00;99.90;;;;;;5105383;28;20673;-71
2024/03/06 00:58:04;;;;;;;20.35;11.23;;;7.00;99.90;;;;;;5082711;28;20084;-71
2024/03/06 01:00:30;;;;;;;23.85;10.98;;;7.00;99.90;;;;;;5103894;28;20112;-71
2024/03/06 01:02:55;;;;;;;22.23;9.68;;;7.00;99.90;;;;;;5105407;28;20103;-71
2024/03/06 01:05:21;;;;;;;26.15;11.50;;;7.00;99.90;;;;;;5088137;28;20122;-72
2024/03/06 01:07:47;;;;;;;21.92;10.27;;;7.10;99.90;;;;;;5089452;28;20034;-73
2024/03/06 01:10:12;;;;;;;23.55;11.02;;;7.10;99.90;;;;;;5109456;28;20036;-74
2024/03/06 01:12:38;;;;;;;23.88;10.65;;;7.10;99.90;;;;;;5087213;28;20109;-71
2024/03/06 01:15:04;;;;;;;27.15;10.70;;;7.10;99.90;;;;;;5088239;28;20028;-70
2024/03/06 01:17:30;;;;;;;23.70;10.18;;;7.10;99.90;;;;;;5106828;28;20036;-70
2024/03/06 01:19:55;;;;;;;23.48;11.77;;;7.10;99.90;;;;;;5107232;28;20392;-71
2024/03/06 01:22:21;;;;;;;23.63;10.70;;;7.20;99.90;;;;;;5087198;28;20114;-73
2024/03/06 01:24:48;;;;;;;20.95;10.40;;;7.20;99.90;;;;;;5086041;28;20042;-71
2024/03/06 01:27:16;;;;;;;22.25;10.68;;;7.10;99.90;;;;;;5109455;28;20395;-71
2024/03/06 01:29:42;;;;;;;27.33;11.65;;;7.10;99.90;;;;;;5078592;28;20047;-72
2024/03/06 01:32:07;;;;;;;24.90;11.93;;;7.10;99.90;;;;;;5089020;28;20039;-71
2024/03/06 01:34:33;;;;;;;23.00;10.93;;;7.10;99.90;;;;;;5087658;28;20047;-71
2024/03/06 01:36:58;;;;;;;27.88;12.10;;;7.10;99.90;;;;;;5107075;28;20157;-73
2024/03/06 01:39:24;;;;;;;25.90;12.18;;;7.10;99.90;;;;;;5109755;28;20069;-72
2024/03/06 01:41:50;;;;;;;24.05;12.10;;;7.10;99.90;;;;;;5107630;28;20028;-71
2024/03/06 01:44:17;;;;;;;27.08;11.20;;;7.10;99.90;;;;;;5109275;28;20028;-75
2024/03/06 01:46:47;;;;;;;26.98;12.52;;;7.10;99.90;;;;;;5083504;28;20536;-76
2024/03/06 01:49:14;;;;;;;24.02;10.45;;;7.10;99.90;;;;;;5103796;28;20077;-73
2024/03/06 01:51:42;;;;;;;28.52;11.45;;;7.10;99.90;;;;;;5083284;28;20039;-72
2024/03/06 01:54:08;;;;;;;26.90;11.95;;;7.10;99.90;;;;;;5103950;28;20028;-72
2024/03/06 01:56:36;;;;;;;24.52;10.90;;;7.10;99.90;;;;;;5108694;28;20042;-73
2024/03/06 01:59:03;;;;;;;24.33;11.52;;;7.10;99.90;;;;;;5088281;28;20482;-72
2024/03/06 02:01:29;;;;;;;28.08;11.88;;;7.10;99.90;;;;;;5106416;28;20046;-73
2024/03/06 02:03:56;;;;;;;27.55;12.25;;;7.00;99.90;;;;;;5085208;28;20036;-72
2024/03/06 02:06:22;;;;;;;22.65;10.23;;;7.00;99.90;;;;;;5100419;27;20122;-72
2024/03/06 02:08:47;;;;;;;29.25;10.38;;;7.10;99.90;;;;;;5085752;28;20518;-72
2024/03/06 02:11:13;;;;;;;26.80;12.82;;;7.10;99.90;;;;;;5086086;28;20036;-71
2024/03/06 02:13:40;;;;;;;21.60;11.02;;;7.10;99.90;;;;;;5087945;28;20046;-72
2024/03/06 02:16:06;;;;;;;26.25;11.30;;;7.10;99.90;;;;;;5105601;28;20036;-71
2024/03/06 02:18:31;;;;;;;21.00;10.95;;;7.10;99.90;;;;;;5090717;28;20534;-72
2024/03/06 02:20:57;;;;;;;29.15;12.35;;;7.10;99.90;;;;;;5104762;28;20043;-72
2024/03/06 02:23:23;;;;;;;24.70;11.93;;;7.10;99.90;;;;;;5104694;28;20177;-72
2024/03/06 02:25:49;;;;;;;26.08;11.35;;;7.10;99.90;;;;;;5086400;28;20031;-72
2024/03/06 02:28:16;;;;;;;32.83;12.65;;;7.00;99.90;;;;;;5088771;28;20516;-72
2024/03/06 02:30:42;;;;;;;23.15;11.75;;;7.00;99.90;;;;;;5104633;28;20122;-72
2024/03/06 02:33:09;;;;;;;23.60;11.02;;;7.00;99.90;;;;;;5087240;28;20115;-72
2024/03/06 02:35:35;;;;;;;28.58;12.43;;;6.90;99.90;;;;;;5086625;28;20581;-72
2024/03/06 02:38:04;;;;;;;25.30;12.50;;;6.90;99.90;;;;;;5105950;28;20032;-72
2024/03/06 02:40:33;;;;;;;24.00;11.40;;;6.90;99.90;;;;;;5087664;28;20032;-72
2024/03/06 02:42:58;;;;;;;26.70;11.60;;;6.90;99.90;;;;;;5078168;28;20023;-72
2024/03/06 02:45:24;;;;;;;24.30;11.93;;;6.90;99.90;;;;;;5104995;28;20038;-72
2024/03/06 02:47:49;;;;;;;24.00;10.95;;;6.90;99.90;;;;;;5086061;28;20080;-72
2024/03/06 02:50:15;;;;;;;26.98;12.52;;;6.90;99.90;;;;;;5099101;28;20024;-72
2024/03/06 02:52:41;;;;;;;23.00;11.07;;;6.90;99.90;;;;;;5086881;28;20184;-72
2024/03/06 02:55:07;;;;;;;26.10;11.73;;;6.90;99.90;;;;;;5104166;28;20107;-72
2024/03/06 02:57:32;;;;;;;24.83;11.60;;;6.90;99.90;;;;;;5082098;28;20056;-73
2024/03/06 02:59:59;;;;;;;26.38;11.50;;;6.90;99.90;;;;;;5106060;28;20058;-72
2024/03/06 03:02:24;;;;;;;27.45;12.57;;;6.90;99.90;;;;;;5106004;28;20042;-73
2024/03/06 03:04:51;;;;;;;23.15;11.13;;;6.90;99.90;;;;;;5088172;28;20075;-72
2024/03/06 03:07:18;;;;;;;23.67;11.15;;;6.90;99.90;;;;;;5088211;28;20491;-75
2024/03/06 03:09:43;;;;;;;22.95;11.68;;;6.80;99.90;;;;;;5107959;28;20792;-72
2024/03/06 03:12:11;;;;;;;22.98;11.48;;;6.80;99.90;;;;;;5105744;28;20039;-72
2024/03/06 03:14:37;;;;;;;20.95;11.02;;;6.80;99.90;;;;;;5099951;28;20032;-72
2024/03/06 03:17:05;;;;;;;26.00;12.13;;;6.80;99.90;;;;;;5083768;28;20403;-72
2024/03/06 03:19:31;;;;;;;22.13;11.40;;;6.80;99.90;;;;;;5104600;28;20038;-72
2024/03/06 03:21:57;;;;;;;20.70;9.98;;;6.80;99.90;;;;;;5106098;28;20426;-72
2024/03/06 03:24:25;;;;;;;22.17;10.50;;;6.70;99.90;;;;;;5088227;28;20027;-72
2024/03/06 03:26:51;;;;;;;24.55;12.60;;;6.70;99.90;;;;;;5087509;28;20058;-72
2024/03/06 03:29:17;;;;;;;25.20;11.50;;;6.70;99.90;;;;;;5103541;28;20032;-72
2024/03/06 03:31:43;;;;;;;24.70;10.80;;;6.70;99.90;;;;;;5103582;28;20352;-72
2024/03/06 03:34:08;;;;;;;21.73;10.73;;;6.70;99.90;;;;;;5101395;28;20082;-72
2024/03/06 03:36:34;;;;;;;25.90;11.23;;;6.70;99.90;;;;;;5104903;28;20030;-71
2024/03/06 03:39:00;;;;;;;24.52;11.65;;;6.70;99.90;;;;;;5106344;28;20537;-72
2024/03/06 03:41:26;;;;;;;30.50;12.82;;;6.70;99.90;;;;;;5101506;28;20028;-72
2024/03/06 03:43:51;;;;;;;24.70;12.13;;;6.70;99.90;;;;;;5105321;28;20100;-72
2024/03/06 03:46:17;;;;;;;32.58;12.30;;;6.70;99.90;;;;;;5088049;28;20152;-72
2024/03/06 03:48:43;;;;;;;25.40;12.35;;;6.70;99.90;;;;;;5089171;28;20390;-73
2024/03/06 03:51:08;;;;;;;26.58;11.48;;;6.70;99.90;;;;;;5084809;28;20031;-72
2024/03/06 03:53:34;;;;;;;30.67;12.55;;;6.80;99.90;;;;;;5102760;28;20088;-73
2024/03/06 03:56:00;;;;;;;24.63;11.55;;;6.80;99.90;;;;;;5107002;28;20038;-72
2024/03/06 03:58:26;;;;;;;30.38;13.15;;;6.80;99.90;;;;;;5088114;28;20059;-72
2024/03/06 04:00:52;;;;;;;26.27;11.15;;;6.70;99.90;;;;;;5106455;28;20051;-71
2024/03/06 04:03:20;;;;;;;25.95;11.43;;;6.80;99.90;;;;;;5106321;28;20024;-72
2024/03/06 04:05:48;;;;;;;30.15;12.88;;;6.70;99.90;;;;;;5084947;28;20043;-72
2024/03/06 04:08:14;;;;;;;25.25;11.25;;;6.70;99.90;;;;;;5104712;28;20123;-72
2024/03/06 04:10:41;;;;;;;26.38;12.25;;;6.70;99.90;;;;;;5084262;28;20122;-72
2024/03/06 04:13:07;;;;;;;28.90;13.13;;;6.70;99.90;;;;;;5095925;28;20104;-72
2024/03/06 04:15:33;;;;;;;26.02;12.13;;;6.70;99.90;;;;;;5104592;28;20047;-73
2024/03/06 04:17:58;;;;;;;29.67;12.60;;;6.70;99.90;;;;;;5106232;28;20121;-72
2024/03/06 04:20:24;;;;;;;27.17;12.25;;;6.70;99.90;;;;;;5079535;28;20055;-72
2024/03/06 04:22:51;;;;;;;28.80;12.25;;;6.70;99.90;;;;;;5102901;28;20027;-73
2024/03/06 04:25:17;;;;;;;31.55;12.90;;;6.70;99.90;;;;;;5077516;28;20118;-72
2024/03/06 04:27:43;;;;;;;27.38;12.43;;;6.70;99.90;;;;;;5079676;28;20036;-73
2024/03/06 04:30:09;;;;;;;25.55;12.95;;;6.70;99.90;;;;;;5102050;28;20050;-72
2024/03/06 04:32:34;;;;;;;24.85;11.38;;;6.70;99.90;;;;;;5097217;28;20403;-72
2024/03/06 04:35:00;;;;;;;28.13;12.73;;;6.70;99.90;;;;;;5104228;28;20039;-72
2024/03/06 04:37:26;;;;;;;27.77;12.10;;;6.70;99.90;;;;;;5100354;28;20066;-73
2024/03/06 04:39:52;;;;;;;32.90;12.07;;;6.70;99.90;;;;;;5087882;28;20038;-72
2024/03/06 04:42:18;;;;;;;27.50;12.27;;;6.60;99.90;;;;;;5098569;28;20040;-75
2024/03/06 04:44:45;;;;;;;29.67;12.18;;;6.60;99.90;;;;;;5087733;28;20028;-72
2024/03/06 04:47:11;;;;;;;24.80;12.35;;;6.60;99.90;;;;;;5080347;28;20609;-72
2024/03/06 04:49:36;;;;;;;27.27;12.55;;;6.50;99.90;;;;;;5099756;28;20044;-72
2024/03/06 04:52:02;;;;;;;27.90;12.70;;;6.50;99.90;;;;;;5084643;28;20387;-72
2024/03/06 04:54:28;;;;;;;29.85;13.55;;;6.40;99.90;;;;;;5084111;28;20029;-73
2024/03/06 04:56:54;;;;;;;25.15;12.80;;;6.40;99.90;;;;;;5087404;28;20121;-72
2024/03/06 04:59:20;;;;;;;28.08;12.32;;;6.40;99.90;;;;;;5096807;28;20039;-72
2024/03/06 05:01:46;;;;;;;26.52;13.35;;;6.30;99.90;;;;;;5079695;28;20035;-72
2024/03/06 05:04:11;;;;;;;24.85;12.63;;;6.20;99.90;;;;;;5104002;28;20468;-72
2024/03/06 05:06:37;;;;;;;22.65;11.50;;;6.20;99.90;;;;;;5102477;28;24871;-73
2024/03/06 05:09:04;;;;;;;28.17;12.73;;;6.10;99.90;;;;;;5085234;28;20031;-72
2024/03/06 05:11:29;;;;;;;28.08;13.65;;;6.10;99.90;;;;;;5084382;28;20032;-72
2024/03/06 05:13:57;;;;;;;25.95;12.73;;;6.00;99.90;;;;;;5081222;28;20165;-72
2024/03/06 05:16:23;;;;;;;28.88;12.70;;;6.00;99.90;;;;;;5084627;28;20029;-73
2024/03/06 05:18:49;;;;;;;28.25;13.88;;;6.00;99.90;;;;;;5081816;28;20069;-73
2024/03/06 05:21:15;;;;;;;28.10;12.82;;;5.90;99.90;;;;;;5099802;28;20055;-72
2024/03/06 05:23:41;;;;;;;31.30;13.15;;;5.90;99.90;;;;;;5098703;28;20031;-73
2024/03/06 05:26:07;;;;;;;32.08;14.23;;;5.80;99.90;;;;;;5102183;28;20447;-72
2024/03/06 05:28:33;;;;;;;23.67;11.98;;;5.80;99.90;;;;;;5104711;28;20039;-73
2024/03/06 05:31:00;;;;;;;26.05;12.57;;;5.70;99.90;;;;;;5086989;28;20058;-72
2024/03/06 05:33:28;;;;;;;28.85;13.70;;;5.70;99.90;;;;;;5085352;28;20357;-72
2024/03/06 05:35:53;;;;;;;34.75;14.98;;;5.70;99.90;;;;;;5079067;28;20036;-72
2024/03/06 05:38:19;;;;;;;33.35;14.43;;;5.70;99.90;;;;;;5084963;28;20115;-72
2024/03/06 05:40:45;;;;;;;33.08;14.60;;;5.70;99.90;;;;;;5104720;28;20046;-72
2024/03/06 05:43:10;;;;;;;69.25;16.00;;;5.60;99.90;;;;;;5099895;28;20032;-72
2024/03/06 05:45:36;;;;;;;39.95;14.63;;;5.60;99.90;;;;;;5081653;28;20035;-72
2024/03/06 05:48:03;;;;;;;42.15;15.65;;;5.60;99.90;;;;;;5091961;28;20027;-72
2024/03/06 05:50:30;;;;;;;41.03;14.73;;;5.60;99.90;;;;;;5108825;27;20077;-72
2024/03/06 05:52:55;;;;;;;36.25;13.73;;;5.60;99.90;;;;;;5090794;28;20031;-73
2024/03/06 05:55:21;;;;;;;59.90;15.05;;;5.60;99.90;;;;;;5093815;28;20051;-73
2024/03/06 05:57:46;;;;;;;48.00;14.30;;;5.60;99.90;;;;;;5106751;28;20056;-72
2024/03/06 06:00:13;;;;;;;60.83;16.98;;;5.60;99.90;;;;;;5087694;28;20059;-73
2024/03/06 06:02:38;;;;;;;39.10;13.88;;;5.60;99.90;;;;;;5084099;28;20050;-73
2024/03/06 06:05:05;;;;;;;58.30;13.15;;;5.60;99.90;;;;;;5108221;28;20032;-72
2024/03/06 06:07:30;;;;;;;40.63;14.00;;;5.60;99.90;;;;;;5087903;28;20612;-71
2024/03/06 06:09:56;;;;;;;50.53;14.30;;;5.60;99.90;;;;;;5088741;28;20126;-72
2024/03/06 06:12:22;;;;;;;46.50;14.27;;;5.60;99.90;;;;;;5103128;28;20190;-72
2024/03/06 06:14:47;;;;;;;39.53;13.13;;;5.60;99.90;;;;;;5082922;28;20035;-72
2024/03/06 06:17:15;;;;;;;58.53;15.48;;;5.60;99.90;;;;;;5085259;28;20032;-72
2024/03/06 06:19:42;;;;;;;37.92;13.38;;;5.60;99.90;;;;;;5102541;28;20047;-72
2024/03/06 06:22:08;;;;;;;37.03;13.45;;;5.50;99.90;;;;;;5079081;28;20035;-71
2024/03/06 06:24:33;;;;;;;66.15;13.40;;;5.60;99.90;;;;;;5102435;28;20031;-72
2024/03/06 06:26:59;;;;;;;87.13;15.57;;;5.60;99.90;;;;;;5086689;28;20032;-72
2024/03/06 06:29:24;;;;;;;47.08;13.25;;;5.60;99.90;;;;;;5087290;28;20141;-72
2024/03/06 06:31:50;;;;;;;45.00;12.93;;;5.60;99.90;;;;;;5102141;28;20035;-72
2024/03/06 06:34:16;;;;;;;53.45;15.52;;;5.60;99.90;;;;;;5102049;28;20039;-71
2024/03/06 06:36:45;;;;;;;41.95;13.80;;;5.50;99.90;;;;;;5104293;28;20038;-72
2024/03/06 06:39:12;;;;;;;34.87;13.60;;;5.50;99.90;;;;;;5103939;28;20031;-71
2024/03/06 06:41:37;;;;;;;64.50;16.33;;;5.60;99.90;;;;;;5086168;28;20051;-72
2024/03/06 06:44:03;;;;;;;42.92;14.98;;;5.60;99.90;;;;;;5086725;28;20023;-72
2024/03/06 06:46:29;;;;;;;32.72;13.88;;;5.60;99.90;;;;;;5103630;28;20306;-72
2024/03/06 06:48:54;;;;;;;38.80;14.38;;;5.60;99.90;;;;;;5103526;28;20035;-72
2024/03/06 06:51:20;;;;;;;39.83;14.98;;;5.60;99.90;;;;;;5078738;28;20169;-72
2024/03/06 06:53:46;;;;;;;42.13;15.05;;;5.70;99.90;;;;;;5085570;28;20091;-72
2024/03/06 06:56:11;;;;;;;35.83;13.82;;;5.70;99.90;;;;;;5102579;28;20115;-72
2024/03/06 06:58:37;;;;;;;37.67;14.20;;;5.70;99.90;;;;;;5085983;28;20646;-72
2024/03/06 07:01:03;;;;;;;47.65;14.40;;;5.70;99.90;;;;;;5105152;28;20100;-72
2024/03/06 07:03:29;;;;;;;28.92;14.27;;;5.70;99.90;;;;;;5083425;28;20057;-72
2024/03/06 07:05:57;;;;;;;50.15;15.52;;;5.80;99.90;;;;;;5085353;28;20024;-72
2024/03/06 07:08:22;;;;;;;36.63;14.35;;;5.70;99.90;;;;;;5084747;28;20154;-72
2024/03/06 07:10:48;;;;;;;26.65;12.98;;;5.80;99.90;;;;;;5086996;28;20082;-71
2024/03/06 07:13:14;;;;;;;34.13;13.52;;;5.80;99.90;;;;;;5106806;28;20028;-71
2024/03/06 07:15:39;;;;;;;31.95;12.82;;;5.80;99.90;;;;;;5087366;28;20129;-74
2024/03/06 07:18:05;;;;;;;34.50;14.90;;;5.90;99.90;;;;;;5106038;28;20035;-72
2024/03/06 07:20:31;;;;;;;29.88;14.63;;;5.80;99.90;;;;;;5101882;28;20031;-72
2024/03/06 07:22:57;;;;;;;31.40;14.75;;;5.90;99.90;;;;;;5101754;28;20028;-72
2024/03/06 07:25:23;;;;;;;30.48;12.85;;;5.90;99.90;;;;;;5103604;28;20043;-73
2024/03/06 07:27:49;;;;;;;27.23;13.63;;;5.90;99.90;;;;;;5085597;28;20035;-71
2024/03/06 07:30:15;;;;;;;28.50;14.18;;;6.00;99.90;;;;;;5086798;28;20027;-72
2024/03/06 07:32:40;;;;;;;27.65;14.02;;;6.10;99.90;;;;;;5085460;28;20067;-73
2024/03/06 07:35:06;;;;;;;33.03;13.07;;;6.20;99.90;;;;;;5104689;28;20024;-71
2024/03/06 07:37:33;;;;;;;35.00;13.93;;;6.20;99.90;;;;;;5101680;28;20038;-72
2024/03/06 07:39:59;;;;;;;29.13;13.13;;;6.30;99.90;;;;;;5081189;28;20133;-73
2024/03/06 07:42:25;;;;;;;35.97;14.73;;;6.30;99.90;;;;;;5104281;28;20165;-72
2024/03/06 07:44:51;;;;;;;32.67;13.57;;;6.40;99.90;;;;;;5081821;28;20151;-72
2024/03/06 07:47:17;;;;;;;27.30;12.38;;;6.50;99.90;;;;;;5106227;27;20028;-72
2024/03/06 07:49:44;;;;;;;25.95;12.38;;;6.50;99.90;;;;;;5082838;28;20396;-72
2024/03/06 07:52:10;;;;;;;22.05;11.85;;;6.70;99.90;;;;;;5086045;28;20372;-71
2024/03/06 07:54:36;;;;;;;23.98;11.88;;;6.80;99.90;;;;;;5096415;27;20075;-70
2024/03/06 07:57:01;;;;;;;22.20;10.93;;;6.80;99.90;;;;;;5083948;28;20059;-70
2024/03/06 07:59:27;;;;;;;20.55;10.80;;;7.00;99.90;;;;;;5083527;28;20035;-70
2024/03/06 08:01:52;;;;;;;19.52;10.65;;;7.20;99.90;;;;;;5083558;28;20036;-71
2024/03/06 08:04:18;;;;;;;16.38;9.35;;;7.30;99.90;;;;;;5099784;28;20042;-73
2024/03/06 08:06:44;;;;;;;21.10;10.30;;;7.50;99.90;;;;;;5098915;28;20023;-70
2024/03/06 08:09:09;;;;;;;18.92;10.15;;;7.60;99.90;;;;;;5084932;28;20403;-71
2024/03/06 08:11:35;;;;;;;16.85;9.70;;;7.90;99.90;;;;;;5081780;28;20039;-72
2024/03/06 08:14:01;;;;;;;15.00;8.80;;;8.10;99.90;;;;;;5100493;28;20486;-71
2024/03/06 08:16:28;;;;;;;16.38;8.63;;;8.10;99.90;;;;;;5100136;28;20074;-71
2024/03/06 08:18:54;;;;;;;14.13;8.85;;;8.10;99.90;;;;;;5083027;28;20088;-71
2024/03/06 08:21:20;;;;;;;16.77;8.90;;;8.10;99.90;;;;;;5100706;28;20029;-71
2024/03/06 08:23:47;;;;;;;18.15;8.88;;;8.10;99.90;;;;;;5103577;28;20510;-73
2024/03/06 08:26:13;;;;;;;16.45;7.93;;;8.20;99.90;;;;;;5085258;28;20031;-71
2024/03/06 08:28:38;;;;;;;17.33;9.77;;;8.30;99.90;;;;;;5082334;28;20483;-73
2024/03/06 08:31:04;;;;;;;16.38;9.43;;;8.40;99.90;;;;;;5082910;28;20126;-71
2024/03/06 08:33:29;;;;;;;18.33;9.25;;;8.50;99.90;;;;;;5082873;28;20075;-71
2024/03/06 08:35:55;;;;;;;16.27;8.35;;;8.40;99.90;;;;;;5100883;28;20051;-71
2024/03/06 08:38:20;;;;;;;14.75;8.05;;;8.40;99.90;;;;;;5084876;28;20047;-73
2024/03/06 08:40:46;;;;;;;16.13;8.70;;;8.30;99.90;;;;;;5103161;28;20032;-73
2024/03/06 08:43:15;;;;;;;16.45;9.10;;;8.30;99.90;;;;;;5102489;28;20031;-71
2024/03/06 08:45:41;;;;;;;16.05;9.43;;;8.30;99.90;;;;;;5098080;28;20039;-71
2024/03/06 08:48:07;;;;;;;15.38;8.60;;;8.20;99.90;;;;;;5100674;28;20027;-71
2024/03/06 08:50:32;;;;;;;16.50;8.32;;;8.20;99.90;;;;;;5084735;28;20442;-71
2024/03/06 08:52:58;;;;;;;23.90;8.50;;;8.30;99.90;;;;;;5084519;28;20130;-71
2024/03/06 08:55:23;;;;;;;15.90;8.38;;;8.30;99.90;;;;;;5103359;28;20040;-73
2024/03/06 08:57:50;;;;;;;16.80;7.78;;;8.30;99.90;;;;;;5098976;28;20086;-71
2024/03/06 09:00:17;;;;;;;17.58;8.90;;;8.20;99.90;;;;;;5085579;28;20100;-73
2024/03/06 09:02:43;;;;;;;15.65;8.55;;;8.20;99.90;;;;;;5079714;28;20031;-71
2024/03/06 09:05:10;;;;;;;16.75;8.55;;;8.40;99.90;;;;;;5085419;28;20503;-73
2024/03/06 09:07:40;;;;;;;17.55;8.60;;;8.40;99.90;;;;;;5084333;28;20564;-72
2024/03/06 09:10:13;;;;;;;14.52;8.30;;;8.40;99.90;;;;;;5100797;28;20027;-71
2024/03/06 09:12:38;;;;;;;21.95;9.77;;;8.30;99.90;;;;;;5081582;28;21230;-72
2024/03/06 09:15:07;;;;;;;15.45;8.23;;;8.30;99.90;;;;;;5083390;28;20031;-74
2024/03/06 09:17:32;;;;;;;18.92;9.23;;;8.40;99.90;;;;;;5084073;28;20476;-72
2024/03/06 09:19:58;;;;;;;15.35;8.95;;;8.50;99.90;;;;;;5084228;28;20035;-71
2024/03/06 09:22:24;;;;;;;17.23;9.50;;;8.50;99.90;;;;;;5088682;28;20039;-72
2024/03/06 09:24:49;;;;;;;18.00;9.45;;;8.50;99.90;;;;;;5106606;28;20138;-73
2024/03/06 09:27:15;;;;;;;16.98;9.40;;;8.60;99.90;;;;;;5090162;28;20067;-71
2024/03/06 09:29:42;;;;;;;20.08;10.75;;;8.70;99.90;;;;;;5106552;28;20043;-72
2024/03/06 09:32:08;;;;;;;18.80;9.38;;;8.90;99.90;;;;;;5087555;28;20429;-72
2024/03/06 09:34:33;;;;;;;16.00;8.82;;;8.90;99.90;;;;;;5085460;28;20043;-72
2024/03/06 09:36:59;;;;;;;17.65;9.68;;;9.00;99.90;;;;;;5105881;28;20039;-72
2024/03/06 09:39:24;;;;;;;16.58;8.57;;;9.20;99.90;;;;;;5086642;28;20498;-71
2024/03/06 09:41:50;;;;;;;16.63;8.45;;;9.20;99.90;;;;;;5085356;28;20051;-72
2024/03/06 09:44:17;;;;;;;19.38;9.40;;;9.20;99.90;;;;;;5105783;28;20045;-73
2024/03/06 09:46:44;;;;;;;21.70;10.43;;;9.20;99.90;;;;;;5086273;28;20028;-71
2024/03/06 09:49:11;;;;;;;22.50;10.18;;;9.20;99.90;;;;;;5086428;28;20050;-72
2024/03/06 09:51:40;;;;;;;21.45;9.57;;;9.30;99.90;;;;;;5087646;28;20031;-71
2024/03/06 09:54:09;;;;;;;17.33;9.88;;;9.20;99.90;;;;;;5104660;28;20031;-70
2024/03/06 09:56:34;;;;;;;19.95;9.57;;;9.30;99.90;;;;;;5105181;28;20395;-74
2024/03/06 09:59:00;;;;;;;18.88;9.48;;;9.30;99.90;;;;;;5104972;28;20027;-71
2024/03/06 10:01:26;;;;;;;20.95;9.90;;;9.40;99.90;;;;;;5104995;28;20437;-70
2024/03/06 10:03:52;;;;;;;21.40;9.77;;;9.60;99.90;;;;;;5104531;28;20395;-72
2024/03/06 10:06:17;;;;;;;20.27;9.80;;;9.60;99.90;;;;;;5086815;28;20289;-71
2024/03/06 10:08:45;;;;;;;19.13;10.00;;;9.60;99.90;;;;;;5105617;28;20039;-71
2024/03/06 10:11:12;;;;;;;19.25;8.93;;;9.60;99.90;;;;;;5087090;28;20449;-72
2024/03/06 10:13:37;;;;;;;22.00;9.80;;;9.60;99.90;;;;;;5104002;28;20074;-74
2024/03/06 10:16:08;;;;;;;20.38;10.98;;;9.60;99.90;;;;;;5106629;28;20468;-71
2024/03/06 10:18:34;;;;;;;21.60;10.95;;;9.60;99.90;;;;;;5105738;28;20040;-72
2024/03/06 10:21:00;;;;;;;23.02;10.60;;;9.50;99.90;;;;;;5087755;28;20031;-73
2024/03/06 10:23:29;;;;;;;20.60;10.75;;;9.50;99.90;;;;;;5086126;28;20023;-73
2024/03/06 10:25:55;;;;;;;25.73;12.15;;;9.40;99.90;;;;;;5085440;28;20479;-71
2024/03/06 10:28:24;;;;;;;22.65;11.68;;;9.20;99.90;;;;;;5105202;28;20036;-72
2024/03/06 10:30:51;;;;;;;24.92;12.20;;;9.20;99.90;;;;;;5104747;28;20446;-71
2024/03/06 10:33:21;;;;;;;24.92;11.65;;;9.20;99.90;;;;;;5087331;28;20032;-71
2024/03/06 10:35:51;;;;;;;26.30;12.60;;;9.10;99.90;;;;;;5085761;28;20100;-71
2024/03/06 10:38:19;;;;;;;24.45;12.13;;;9.10;99.90;;;;;;5087906;28;20376;-72
2024/03/06 10:40:45;;;;;;;24.60;12.13;;;9.20;99.90;;;;;;5086643;28;20024;-71
2024/03/06 10:43:11;;;;;;;26.33;12.02;;;9.30;99.90;;;;;;5106236;28;20432;-75
2024/03/06 10:46:01;;;;;;;27.08;11.82;;;9.40;99.90;;;;;;5086256;28;20035;-71
2024/03/06 10:48:28;;;;;;;27.35;13.02;;;9.50;99.90;;;;;;5084851;28;20050;-74
2024/03/06 10:50:54;;;;;;;23.20;11.68;;;9.50;99.90;;;;;;5099746;28;20043;-71
2024/03/06 10:53:21;;;;;;;25.20;12.50;;;9.50;99.90;;;;;;5106178;28;20100;-73
2024/03/06 10:55:49;;;;;;;25.42;12.57;;;9.60;99.90;;;;;;5103576;28;20032;-70
2024/03/06 10:58:16;;;;;;;25.73;13.60;;;9.60;99.90;;;;;;5084581;28;20558;-71
2024/03/06 11:00:47;;;;;;;27.00;13.98;;;9.60;99.90;;;;;;5101570;28;20032;-75
2024/03/06 11:03:14;;;;;;;24.23;12.65;;;9.60;99.90;;;;;;5083885;28;20375;-71
2024/03/06 11:05:41;;;;;;;26.92;12.43;;;9.70;99.90;;;;;;5082485;28;20416;-77
2024/03/06 11:08:11;;;;;;;25.50;13.77;;;9.80;99.90;;;;;;5079999;28;20039;-71
2024/03/06 11:10:38;;;;;;;26.05;12.45;;;9.80;99.90;;;;;;5099503;28;20052;-75
2024/03/06 11:13:19;;;;;;;31.55;13.93;;;9.80;99.90;;;;;;5101212;28;20039;-73
2024/03/06 11:15:45;;;;;;;30.30;14.63;;;9.80;99.90;;;;;;5079169;28;20043;-72
2024/03/06 11:18:29;;;;;;;27.30;12.20;;;9.80;99.90;;;;;;5085872;28;20454;-71
2024/03/06 11:21:21;;;;;;;27.25;12.63;;;9.90;99.90;;;;;;5083937;28;20042;-71
2024/03/06 11:24:32;;;;;;;19.40;10.65;;;9.80;99.90;;;;;;5103695;28;20081;-70
2024/03/06 11:27:02;;;;;;;23.60;10.60;;;9.70;99.90;;;;;;5001623;28;20041;-71
2024/03/06 11:29:29;;;;;;;28.73;11.98;;;9.70;99.90;;;;;;5004962;28;20045;-72
2024/03/06 11:32:00;;;;;;;22.17;10.73;;;9.80;99.90;;;;;;5057241;28;20465;-74
2024/03/06 11:34:26;;;;;;;32.38;12.98;;;9.80;99.90;;;;;;5104328;28;20509;-71
2024/03/06 11:36:57;;;;;;;24.25;10.80;;;9.80;99.90;;;;;;5081675;28;20040;-71
2024/03/06 11:39:22;;;;;;;23.48;10.45;;;9.80;99.90;;;;;;5079047;28;20043;-73
2024/03/06 11:41:50;;;;;;;25.75;11.02;;;9.80;99.90;;;;;;5083164;28;20027;-71
2024/03/06 11:44:17;;;;;;;20.65;10.38;;;9.90;99.90;;;;;;5083921;28;20043;-77
2024/03/06 11:46:48;;;;;;;25.92;10.48;;;10.00;99.90;;;;;;5081772;28;20042;-74
2024/03/06 11:49:33;;;;;;;20.60;9.57;;;10.00;99.90;;;;;;5083916;28;20039;-70
2024/03/06 11:52:02;;;;;;;19.63;8.38;;;10.10;99.90;;;;;;5102501;28;20027;-71
2024/03/06 11:54:29;;;;;;;18.60;7.97;;;10.20;99.90;;;;;;5079740;28;20619;-72
2024/03/06 11:56:56;;;;;;;19.85;8.25;;;10.20;99.90;;;;;;5101176;28;20028;-72
2024/03/06 11:59:23;;;;;;;15.85;7.70;;;10.20;99.90;;;;;;5084446;28;20101;-73
2024/03/06 12:01:49;;;;;;;18.45;7.80;;;10.20;99.90;;;;;;5081382;28;20064;-71
2024/03/06 12:04:15;;;;;;;18.13;7.57;;;10.20;99.90;;;;;;5103320;27;20039;-73
2024/03/06 12:06:41;;;;;;;16.70;8.13;;;10.30;99.90;;;;;;5082326;28;20506;-72
2024/03/06 12:09:10;;;;;;;19.17;7.07;;;10.30;99.90;;;;;;5085703;28;20042;-71
2024/03/06 12:11:37;;;;;;;15.93;7.60;;;10.30;99.90;;;;;;5083968;28;20066;-72
2024/03/06 12:14:03;;;;;;;15.02;7.35;;;10.40;99.90;;;;;;5084456;28;20020;-71
2024/03/06 12:16:28;;;;;;;16.23;7.45;;;10.30;99.90;;;;;;5101779;28;20077;-71
2024/03/06 12:18:58;;;;;;;15.68;7.53;;;10.40;99.90;;;;;;5104299;28;20024;-73
2024/03/06 12:21:28;;;;;;;15.73;5.95;;;10.40;99.90;;;;;;5101448;28;20028;-73
2024/03/06 12:24:05;;;;;;;12.63;6.60;;;10.50;99.90;;;;;;5101521;28;20115;-72
2024/03/06 12:26:31;;;;;;;10.90;5.57;;;10.50;99.90;;;;;;5085539;28;20032;-72
2024/03/06 12:29:09;;;;;;;10.85;5.28;;;10.50;99.90;;;;;;5090170;28;20487;-74
2024/03/06 12:31:36;;;;;;;11.32;6.30;;;10.50;99.90;;;;;;5081827;28;20043;-71
2024/03/06 12:34:02;;;;;;;14.25;6.90;;;10.50;99.90;;;;;;5101522;28;20047;-72
2024/03/06 12:36:30;;;;;;;13.70;5.78;;;10.50;99.90;;;;;;5086698;28;20016;-73